PWSweather.com
Personal Weather Stations
Station Observations
UISISLE1
Newport, Isle ofWight, ISLE OF WIGHT PO30 2JX

NewportIsle ofWight, ISLE OF WIGHT PO30 2JX

Lat: 50.72, Lon: -1.27

Elevation: 45

Station Type: Davis Vantage Pro Plus

http://www.isleofwightweather.co.uk

Latest ConditionsUpdated 2:45:01 PM GMT Tuesday, Jul 23, 2019
Currently Today's Max Today's Min Today's Average
Temperature 85.2°F29.6°C 85.6°F29.8°C 55.0°F12.8°C 67.7°F19.8°C
Dew Point 66.1°F18.9°C 67.7°F19.8°C 52.4°F11.3°C 60.9°F16.1°C
Winds Calm Calm 5.8 mph -9.3 kmh - - 1.6 mph 2.6 kmh
Wind Gusts 1.2 mph1.9 kmh 12.7 mph20.4 kmh - -
Humidity 53% 97% 51% 81%
Pressure 29.96 in1014.6 mb 30.16 in1021.3 mb 29.96 in1014.6 mb -
Hour Temp Dew Point Humidity Winds Wind Gusts Pressure Precip Precip Rate Daily Precip Total
02:45 PM 85.2°F29.6°C 66.1°F18.9°C 53% Calm Calm 1.2 mph1.9 kmh 29.96 in1014.6 mb - 0.00 in0.0 mm 0.00 in0.0 mm
02:30 PM 85.2°F29.6°C 65.0°F18.3°C 51% 4.6 mph SE7.4 kmh SE 4.6 mph7.4 kmh 29.97 in1014.9 mb - 0.00 in0.0 mm 0.00 in0.0 mm
02:15 PM 85.6°F29.8°C 66.0°F18.9°C 52% 2.3 mph SE3.7 kmh SE 6.9 mph11.1 kmh 29.97 in1014.9 mb - 0.00 in0.0 mm 0.00 in0.0 mm
02:00 PM 85.3°F29.6°C 67.3°F19.6°C 55% Calm Calm 4.6 mph7.4 kmh 29.98 in1015.2 mb - 0.00 in0.0 mm 0.00 in0.0 mm
01:45 PM 84.8°F29.3°C 66.8°F19.3°C 55% 1.2 mph SE1.9 kmh SE 3.5 mph5.6 kmh 29.99 in1015.6 mb - 0.00 in0.0 mm 0.00 in0.0 mm
01:30 PM 84.1°F28.9°C 66.7°F19.3°C 56% 2.3 mph SE3.7 kmh SE 5.8 mph9.3 kmh 29.99 in1015.6 mb - 0.00 in0.0 mm 0.00 in0.0 mm
01:15 PM 83.3°F28.5°C 66.5°F19.2°C 57% 3.5 mph ENE5.6 kmh ENE 6.9 mph11.1 kmh 30.00 in1015.9 mb - 0.00 in0.0 mm 0.00 in0.0 mm
01:00 PM 82.7°F28.2°C 66.9°F19.4°C 59% 1.2 mph ENE1.9 kmh ENE 2.3 mph3.7 kmh 30.00 in1015.9 mb - 0.00 in0.0 mm 0.00 in0.0 mm
12:45 PM 81.9°F27.7°C 66.2°F19.0°C 59% 3.5 mph E5.6 kmh E 8.1 mph13.0 kmh 30.00 in1015.9 mb - 0.00 in0.0 mm 0.00 in0.0 mm
12:30 PM 81.4°F27.4°C 65.7°F18.7°C 59% 3.5 mph E5.6 kmh E 5.8 mph9.3 kmh 30.00 in1015.9 mb - 0.00 in0.0 mm 0.00 in0.0 mm
12:15 PM 81.2°F27.3°C 66.5°F19.2°C 61% 3.5 mph E5.6 kmh E 12.7 mph20.4 kmh 30.02 in1016.6 mb - 0.00 in0.0 mm 0.00 in0.0 mm
12:00 PM 80.8°F27.1°C 66.5°F19.2°C 62% 2.3 mph E3.7 kmh E 6.9 mph11.1 kmh 30.02 in1016.6 mb - 0.00 in0.0 mm 0.00 in0.0 mm
11:45 AM 80.2°F26.8°C 66.5°F19.2°C 63% 3.5 mph E5.6 kmh E 9.2 mph14.8 kmh 30.02 in1016.6 mb - 0.00 in0.0 mm 0.00 in0.0 mm
11:30 AM 79.6°F26.4°C 66.3°F19.1°C 64% 1.2 mph ESE1.9 kmh ESE 6.9 mph11.1 kmh 30.02 in1016.6 mb - 0.00 in0.0 mm 0.00 in0.0 mm
11:15 AM 79.0°F26.1°C 66.2°F19.0°C 65% 4.6 mph SE7.4 kmh SE 9.2 mph14.8 kmh 30.03 in1016.9 mb - 0.00 in0.0 mm 0.00 in0.0 mm
11:00 AM 78.0°F25.6°C 66.6°F19.2°C 68% 4.6 mph ESE7.4 kmh ESE 10.4 mph16.7 kmh 30.04 in1017.3 mb - 0.00 in0.0 mm 0.00 in0.0 mm
10:45 AM 77.6°F25.3°C 66.2°F19.0°C 68% 5.8 mph E9.3 kmh E 11.5 mph18.5 kmh 30.04 in1017.3 mb - 0.00 in0.0 mm 0.00 in0.0 mm
10:30 AM 77.3°F25.2°C 66.3°F19.1°C 69% 4.6 mph E7.4 kmh E 10.4 mph16.7 kmh 30.04 in1017.3 mb - 0.00 in0.0 mm 0.00 in0.0 mm
10:15 AM 76.9°F24.9°C 65.5°F18.6°C 68% 4.6 mph E7.4 kmh E 12.7 mph20.4 kmh 30.05 in1017.6 mb - 0.00 in0.0 mm 0.00 in0.0 mm
10:00 AM 76.6°F24.8°C 64.8°F18.2°C 67% 4.6 mph E7.4 kmh E 9.2 mph14.8 kmh 30.05 in1017.6 mb - 0.00 in0.0 mm 0.00 in0.0 mm
09:45 AM 76.1°F24.5°C 65.6°F18.7°C 70% 2.3 mph ENE3.7 kmh ENE 12.7 mph20.4 kmh 30.05 in1017.6 mb - 0.00 in0.0 mm 0.00 in0.0 mm
09:30 AM 74.7°F23.7°C 66.3°F19.1°C 75% 3.5 mph E5.6 kmh E 4.6 mph7.4 kmh 30.05 in1017.6 mb - 0.00 in0.0 mm 0.00 in0.0 mm
09:15 AM 72.8°F22.7°C 66.6°F19.2°C 81% 4.6 mph E7.4 kmh E 8.1 mph13.0 kmh 30.05 in1017.6 mb - 0.00 in0.0 mm 0.00 in0.0 mm
09:00 AM 70.8°F21.6°C 67.7°F19.8°C 90% 4.6 mph E7.4 kmh E 11.5 mph18.5 kmh 30.05 in1017.6 mb - 0.00 in0.0 mm 0.00 in0.0 mm
08:45 AM 69.1°F20.6°C 67.3°F19.6°C 94% 2.3 mph E3.7 kmh E 5.8 mph9.3 kmh 30.06 in1017.9 mb - 0.00 in0.0 mm 0.00 in0.0 mm
08:30 AM 67.9°F19.9°C 66.4°F19.1°C 95% 4.6 mph E7.4 kmh E 6.9 mph11.1 kmh 30.06 in1017.9 mb - 0.00 in0.0 mm 0.00 in0.0 mm
08:15 AM 67.6°F19.8°C 66.4°F19.1°C 96% 3.5 mph E5.6 kmh E 6.9 mph11.1 kmh 30.07 in1018.3 mb - 0.00 in0.0 mm 0.00 in0.0 mm
08:00 AM 66.7°F19.3°C 65.8°F18.8°C 97% 1.2 mph ENE1.9 kmh ENE 1.2 mph1.9 kmh 30.07 in1018.3 mb - 0.00 in0.0 mm 0.00 in0.0 mm
07:45 AM 65.7°F18.7°C 64.5°F18.1°C 96% 1.2 mph E1.9 kmh E 3.5 mph5.6 kmh 30.08 in1018.6 mb - 0.00 in0.0 mm 0.00 in0.0 mm
07:30 AM 65.0°F18.3°C 63.8°F17.7°C 96% 1.2 mph NE1.9 kmh NE 3.5 mph5.6 kmh 30.09 in1019.0 mb - 0.00 in0.0 mm 0.00 in0.0 mm
07:15 AM 64.4°F18.0°C 63.2°F17.3°C 96% 2.3 mph E3.7 kmh E 4.6 mph7.4 kmh 30.09 in1019.0 mb - 0.00 in0.0 mm 0.00 in0.0 mm
07:00 AM 63.8°F17.7°C 62.6°F17.0°C 96% 1.2 mph E1.9 kmh E 4.6 mph7.4 kmh 30.09 in1019.0 mb - 0.00 in0.0 mm 0.00 in0.0 mm
06:45 AM 63.0°F17.2°C 61.8°F16.6°C 96% 1.2 mph E1.9 kmh E 3.5 mph5.6 kmh 30.10 in1019.3 mb - 0.00 in0.0 mm 0.00 in0.0 mm
06:30 AM 62.5°F16.9°C 61.3°F16.3°C 96% Calm Calm 2.3 mph3.7 kmh 30.10 in1019.3 mb - 0.00 in0.0 mm 0.00 in0.0 mm
06:15 AM 61.6°F16.4°C 60.2°F15.7°C 95% Calm Calm -- 30.10 in1019.3 mb - 0.00 in0.0 mm 0.00 in0.0 mm
06:00 AM 60.4°F15.8°C 59.0°F15.0°C 95% Calm Calm 1.2 mph1.9 kmh 30.11 in1019.6 mb - 0.00 in0.0 mm 0.00 in0.0 mm
05:45 AM 59.5°F15.3°C 58.1°F14.5°C 95% Calm Calm -- 30.11 in1019.6 mb - 0.00 in0.0 mm 0.00 in0.0 mm
05:30 AM 58.3°F14.6°C 56.5°F13.6°C 94% Calm Calm -- 30.11 in1019.6 mb - 0.00 in0.0 mm 0.00 in0.0 mm
05:15 AM 57.6°F14.2°C 55.9°F13.3°C 94% Calm Calm -- 30.11 in1019.6 mb - 0.00 in0.0 mm 0.00 in0.0 mm
05:00 AM 57.1°F13.9°C 55.4°F13.0°C 94% Calm Calm -- 30.11 in1019.6 mb - 0.00 in0.0 mm 0.00 in0.0 mm
04:45 AM 56.3°F13.5°C 54.3°F12.4°C 93% Calm Calm -- 30.11 in1019.6 mb - 0.00 in0.0 mm 0.00 in0.0 mm
04:30 AM 55.7°F13.2°C 53.7°F12.1°C 93% Calm Calm -- 30.12 in1020.0 mb - 0.00 in0.0 mm 0.00 in0.0 mm
04:15 AM 55.3°F12.9°C 53.0°F11.7°C 92% Calm Calm -- 30.12 in1020.0 mb - 0.00 in0.0 mm 0.00 in0.0 mm
04:00 AM 55.0°F12.8°C 52.7°F11.5°C 92% Calm Calm -- 30.12 in1020.0 mb - 0.00 in0.0 mm 0.00 in0.0 mm
03:45 AM 55.0°F12.8°C 52.4°F11.3°C 91% Calm Calm -- 30.12 in1020.0 mb - 0.00 in0.0 mm 0.00 in0.0 mm
03:30 AM 55.1°F12.8°C 52.5°F11.4°C 91% Calm Calm -- 30.12 in1020.0 mb - 0.00 in0.0 mm 0.00 in0.0 mm
03:15 AM 55.3°F12.9°C 52.7°F11.5°C 91% Calm Calm -- 30.13 in1020.3 mb - 0.00 in0.0 mm 0.00 in0.0 mm
03:00 AM 55.4°F13.0°C 52.8°F11.6°C 91% Calm Calm -- 30.13 in1020.3 mb - 0.00 in0.0 mm 0.00 in0.0 mm
02:45 AM 55.6°F13.1°C 53.0°F11.7°C 91% Calm Calm -- 30.14 in1020.7 mb - 0.00 in0.0 mm 0.00 in0.0 mm
02:30 AM 55.8°F13.2°C 53.3°F11.8°C 91% Calm Calm -- 30.14 in1020.7 mb - 0.00 in0.0 mm 0.00 in0.0 mm
02:15 AM 56.1°F13.4°C 53.2°F11.8°C 90% Calm Calm -- 30.14 in1020.7 mb - 0.00 in0.0 mm 0.00 in0.0 mm
02:00 AM 56.4°F13.6°C 53.5°F11.9°C 90% Calm Calm -- 30.15 in1021.0 mb - 0.00 in0.0 mm 0.00 in0.0 mm
01:45 AM 56.8°F13.8°C 53.9°F12.2°C 90% Calm Calm -- 30.15 in1021.0 mb - 0.00 in0.0 mm 0.00 in0.0 mm
01:30 AM 57.1°F13.9°C 54.2°F12.3°C 90% Calm Calm -- 30.15 in1021.0 mb - 0.00 in0.0 mm 0.00 in0.0 mm
01:15 AM 57.5°F14.2°C 54.6°F12.6°C 90% Calm Calm -- 30.16 in1021.3 mb - 0.00 in0.0 mm 0.00 in0.0 mm
01:00 AM 57.8°F14.3°C 54.9°F12.7°C 90% Calm Calm -- 30.16 in1021.3 mb - 0.00 in0.0 mm 0.00 in0.0 mm
12:45 AM 58.2°F14.6°C 55.0°F12.8°C 89% Calm Calm -- 30.16 in1021.3 mb - 0.00 in0.0 mm 0.00 in0.0 mm
12:30 AM 58.5°F14.7°C 55.3°F12.9°C 89% Calm Calm -- 30.16 in1021.3 mb - 0.00 in0.0 mm 0.00 in0.0 mm
12:15 AM 58.8°F14.9°C 55.6°F13.1°C 89% Calm Calm -- 30.16 in1021.3 mb - 0.00 in0.0 mm 0.00 in0.0 mm
12:00 AM 59.1°F15.1°C 55.5°F13.1°C 88% Calm Calm -- 30.16 in1021.3 mb - 0.00 in0.0 mm 0.00 in0.0 mm